createdAt,value
2023-03-31T00:01:16.036Z,4.15
2023-03-31T00:04:16.661Z,3.2625
2023-03-31T00:07:17.417Z,3.0250000000000004
2023-03-31T00:11:16.830Z,4.300000000000001
2023-03-31T00:14:19.892Z,3.4875
2023-03-31T00:17:17.327Z,3.4
2023-03-31T00:21:25.198Z,4.175
2023-03-31T00:24:17.577Z,3.625
2023-03-31T00:27:17.036Z,3
2023-03-31T00:31:16.960Z,4.3875
2023-03-31T00:34:16.602Z,3.5375
2023-03-31T00:37:16.488Z,3.9875000000000003
2023-03-31T00:41:17.413Z,4.1625
2023-03-31T00:44:21.487Z,3.925
2023-03-31T00:47:19.479Z,3.35
2023-03-31T00:51:19.154Z,4.5375000000000005
2023-03-31T00:54:22.498Z,4.2125
2023-03-31T00:57:17.220Z,3.875
2023-03-31T01:01:22.294Z,4.4375
2023-03-31T01:04:19.094Z,3.9625
2023-03-31T01:07:21.775Z,3.65
2023-03-31T01:11:21.340Z,4.0625
2023-03-31T01:14:16.567Z,4.5
2023-03-31T01:17:22.034Z,3.6125
2023-03-31T01:41:33.220Z,3.3875
2023-03-31T01:44:27.518Z,2.95
2023-03-31T01:47:25.367Z,4.075
2023-03-31T01:51:27.583Z,3.075
2023-03-31T01:54:22.724Z,3.6999999999999997
2023-03-31T01:57:22.405Z,3.575
2023-03-31T02:01:24.104Z,2.85
2023-03-31T02:04:21.345Z,2.7874999999999996
2023-03-31T02:07:23.899Z,3.1999999999999997
2023-03-31T02:11:16.298Z,3.45
2023-03-31T02:14:23.560Z,3.8125
2023-03-31T02:17:23.236Z,3.7125
2023-03-31T02:21:17.435Z,3.4875
2023-03-31T02:24:20.561Z,3.7874999999999996
2023-03-31T02:27:21.840Z,4.275
2023-03-31T02:31:28.507Z,4.9375
2023-03-31T02:34:17.551Z,4.125
2023-03-31T02:37:17.571Z,3.7
2023-03-31T02:41:16.320Z,3.6624999999999996
2023-03-31T02:44:16.823Z,3.675
2023-03-31T02:47:19.545Z,2.75
2023-03-31T03:02:05.825Z,3.4875
2023-03-31T03:04:33.177Z,3.4375
2023-03-31T03:07:25.672Z,3.8249999999999997
2023-03-31T03:11:25.295Z,3.7
2023-03-31T03:14:26.107Z,3.15
2023-03-31T03:17:24.051Z,2.6999999999999997
2023-03-31T03:21:16.141Z,3.1375
2023-03-31T03:24:18.496Z,3.9999999999999996
2023-03-31T03:27:17.169Z,2.975
2023-03-31T03:31:16.825Z,3.55
2023-03-31T03:34:19.097Z,2.925
2023-03-31T03:37:16.415Z,2.825
2023-03-31T03:41:16.347Z,3.5500000000000003
2023-03-31T03:44:16.691Z,2.8
2023-03-31T03:47:16.610Z,3.1375
2023-03-31T03:51:16.971Z,3.0125
2023-03-31T03:54:17.302Z,2.45
2023-03-31T03:57:17.511Z,2.5500000000000003
2023-03-31T04:01:17.207Z,3.1125
2023-03-31T04:04:17.910Z,2.9875
2023-03-31T04:07:17.924Z,3.6875
2023-03-31T04:11:19.564Z,3.3375000000000004
2023-03-31T04:14:17.490Z,2.2125
2023-03-31T04:17:16.810Z,2.6624999999999996
2023-03-31T04:21:23.649Z,2.075
2023-03-31T04:24:22.172Z,3.5250000000000004
2023-03-31T04:27:18.203Z,2.7125000000000004
2023-03-31T04:31:26.437Z,3.75
2023-03-31T04:34:17.500Z,2.7875
2023-03-31T04:37:17.552Z,3.4250000000000003
2023-03-31T04:41:16.827Z,2.5
2023-03-31T04:44:16.683Z,2.7249999999999996
2023-03-31T04:47:17.012Z,2.675
2023-03-31T04:51:16.800Z,2.9375
2023-03-31T04:54:16.919Z,2.2375000000000003
2023-03-31T04:57:16.940Z,2.175
2023-03-31T05:01:19.351Z,2.25
2023-03-31T05:04:17.254Z,2.7
2023-03-31T05:07:17.745Z,3.6875
2023-03-31T05:11:16.632Z,3.2375000000000003
2023-03-31T05:14:16.666Z,3.4875
2023-03-31T05:17:18.394Z,2.3625
2023-03-31T05:21:18.203Z,2.925
2023-03-31T05:24:16.935Z,2.3375000000000004
2023-03-31T05:27:16.720Z,2.5875
2023-03-31T05:31:16.890Z,2.6125
2023-03-31T05:34:16.731Z,3.0875
2023-03-31T05:37:16.711Z,2.3375
2023-03-31T05:41:17.376Z,2.4875
2023-03-31T05:44:16.891Z,2.5375
2023-03-31T05:47:17.567Z,2.4
2023-03-31T05:51:16.510Z,2.1000000000000005
2023-03-31T05:54:16.956Z,2.9749999999999996
2023-03-31T05:57:16.930Z,1.7625
2023-03-31T06:01:20.173Z,1.9874999999999998
2023-03-31T06:04:17.115Z,2.7375
2023-03-31T06:07:18.415Z,2.5250000000000004
2023-03-31T06:11:18.751Z,2.3125
2023-03-31T06:14:17.058Z,2.0375
2023-03-31T06:17:16.981Z,1.8250000000000002
2023-03-31T06:21:18.039Z,2.0250000000000004
2023-03-31T06:24:16.983Z,2.975
2023-03-31T06:27:17.118Z,1.8125
2023-03-31T06:31:19.012Z,3.525
2023-03-31T06:34:18.518Z,2.4375
2023-03-31T06:37:17.167Z,2
2023-03-31T06:41:17.836Z,2.4625000000000004
2023-03-31T06:44:17.480Z,2.425
2023-03-31T06:47:16.719Z,1.9249999999999998
2023-03-31T06:51:16.435Z,1.7374999999999998
2023-03-31T06:54:16.807Z,1.6625
2023-03-31T06:57:16.779Z,1.8125000000000002
2023-03-31T07:01:17.061Z,2.2625
2023-03-31T07:04:17.951Z,2.1
2023-03-31T07:07:17.467Z,2.8625
2023-03-31T07:11:20.956Z,2.45
2023-03-31T07:14:17.370Z,2.5
2023-03-31T07:17:17.360Z,1.9874999999999998
2023-03-31T07:21:17.072Z,3.3625000000000003
2023-03-31T07:24:17.627Z,3.075
2023-03-31T07:27:17.369Z,3.9
2023-03-31T07:31:16.930Z,3.1875
2023-03-31T07:34:16.509Z,3.0375
2023-03-31T07:37:16.929Z,3.575
2023-03-31T07:41:18.775Z,4.387499999999999
2023-03-31T07:44:18.121Z,3.1875
2023-03-31T07:47:16.817Z,3.3000000000000003
2023-03-31T07:51:19.283Z,4.4875
2023-03-31T07:54:17.092Z,4.0375
2023-03-31T07:57:18.094Z,3.6375
2023-03-31T08:01:20.796Z,4.475
2023-03-31T08:04:16.680Z,3.8875
2023-03-31T08:07:17.182Z,5.612500000000001
2023-03-31T08:11:17.164Z,4.6125
2023-03-31T08:14:21.944Z,4.2875
2023-03-31T08:17:16.938Z,3.675
2023-03-31T08:21:17.260Z,4.550000000000001
2023-03-31T08:24:17.109Z,3.9499999999999997
2023-03-31T08:27:17.399Z,4.5
2023-03-31T08:31:20.533Z,5.1
2023-03-31T08:34:17.240Z,3.9625000000000004
2023-03-31T08:37:17.316Z,2.5125
2023-03-31T08:41:34.271Z,3.9625
2023-03-31T08:44:24.312Z,2.4250000000000003
2023-03-31T08:47:20.765Z,3.25
2023-03-31T08:51:20.545Z,3.175
2023-03-31T08:54:24.248Z,2.8625
2023-03-31T08:57:21.339Z,2.7375
2023-03-31T09:01:47.667Z,3.175
2023-03-31T09:05:56.811Z,2.875
2023-03-31T09:07:30.077Z,2.4749999999999996
2023-03-31T09:11:30.760Z,2.65
2023-03-31T09:14:26.915Z,3.525
2023-03-31T09:17:23.587Z,3.1
2023-03-31T09:21:21.832Z,2.5124999999999997
2023-03-31T09:24:20.615Z,2.325
2023-03-31T09:27:19.183Z,1.7625000000000002
2023-03-31T09:31:19.705Z,2.8875
2023-03-31T09:34:22.757Z,2.1375
2023-03-31T09:37:16.691Z,2.25
2023-03-31T09:41:18.091Z,2.95
2023-03-31T09:44:38.494Z,2.55
2023-03-31T09:47:24.801Z,3.0625
2023-03-31T09:51:21.818Z,3
2023-03-31T09:54:23.908Z,2.4625000000000004
2023-03-31T09:57:25.445Z,2.6125000000000003
2023-03-31T10:01:16.718Z,4.1
2023-03-31T10:04:22.826Z,3.1125
2023-03-31T10:07:22.139Z,3.5875000000000004
2023-03-31T10:11:17.879Z,3.325
2023-03-31T10:14:23.329Z,3.325
2023-03-31T10:17:19.413Z,4.175
2023-03-31T10:21:22.082Z,3.4875000000000003
2023-03-31T10:24:18.681Z,3.3499999999999996
2023-03-31T10:27:22.626Z,3.6750000000000003
2023-03-31T10:31:17.284Z,3.2874999999999996
2023-03-31T10:34:18.124Z,4.4375
2023-03-31T10:37:20.653Z,3.4499999999999997
2023-03-31T10:41:19.679Z,3.2375
2023-03-31T10:44:34.908Z,3.6249999999999996
2023-03-31T10:47:19.717Z,3.825
2023-03-31T10:51:18.809Z,3.5500000000000003
2023-03-31T10:54:16.856Z,4.3125
2023-03-31T10:57:23.822Z,3.8125
2023-03-31T11:01:31.973Z,4.15
2023-03-31T11:04:32.257Z,3.125
2023-03-31T11:07:32.125Z,3.2874999999999996
2023-03-31T11:11:30.333Z,3.625
2023-03-31T11:14:29.241Z,3.3375000000000004
2023-03-31T11:17:30.961Z,3.125
2023-03-31T11:21:26.717Z,3.2625
2023-03-31T11:24:30.240Z,3.4124999999999996
2023-03-31T11:27:33.370Z,2.75
2023-03-31T11:31:57.312Z,3.2875
2023-03-31T11:34:30.179Z,3.4875
2023-03-31T11:37:37.450Z,3.2875
2023-03-31T11:41:21.759Z,3.4875
2023-03-31T11:44:21.067Z,2.75
2023-03-31T11:47:21.917Z,2.9749999999999996
2023-03-31T11:51:24.016Z,2.575
2023-03-31T11:54:19.677Z,2.6624999999999996
2023-03-31T11:57:21.284Z,2.7625
2023-03-31T12:01:23.299Z,2.675
2023-03-31T12:04:29.993Z,2.7
2023-03-31T12:07:23.926Z,2.4625
2023-03-31T12:11:24.201Z,3.375
2023-03-31T12:14:29.486Z,3.0875000000000004
2023-03-31T12:17:19.666Z,2.9
2023-03-31T12:21:18.898Z,3.1624999999999996
2023-03-31T12:24:16.909Z,2.3
2023-03-31T12:27:21.533Z,3.2625
2023-03-31T12:31:20.711Z,3.5
2023-03-31T12:34:19.089Z,4.1
2023-03-31T12:37:35.936Z,3.1
2023-03-31T12:41:28.166Z,3.375
2023-03-31T12:44:27.981Z,3.7375
2023-03-31T12:47:31.905Z,3.7875
2023-03-31T12:51:28.554Z,3.0625
2023-03-31T12:54:43.184Z,3.075
2023-03-31T12:57:20.981Z,3.4
2023-03-31T13:01:18.482Z,2.325
2023-03-31T13:04:20.490Z,3.2125000000000004
2023-03-31T13:07:38.673Z,2.6875
2023-03-31T13:11:17.670Z,4.25
2023-03-31T13:14:20.856Z,2.3375
2023-03-31T13:17:28.629Z,3.125
2023-03-31T13:21:16.867Z,3.5
2023-03-31T13:24:21.787Z,3.2375
2023-03-31T13:27:30.352Z,3.6750000000000003
2023-03-31T13:31:17.716Z,3.2125
2023-03-31T13:34:17.224Z,3.2
2023-03-31T13:37:32.165Z,3.425
2023-03-31T13:41:32.295Z,2.4875000000000003
2023-03-31T13:44:37.213Z,3.5125
2023-03-31T13:47:38.554Z,2.925
2023-03-31T13:51:25.640Z,3.25
2023-03-31T13:55:53.352Z,2.85
2023-03-31T13:57:37.610Z,3.2
2023-03-31T14:01:39.689Z,2.725
2023-03-31T14:04:37.957Z,2.775
2023-03-31T14:07:20.900Z,2.75
2023-03-31T14:11:20.923Z,2.9375
2023-03-31T14:14:20.353Z,2.5
2023-03-31T14:17:17.049Z,3
2023-03-31T14:21:24.916Z,3.2
2023-03-31T14:24:27.089Z,2.4499999999999997
2023-03-31T14:27:37.987Z,2.6375
2023-03-31T14:31:26.109Z,3.4499999999999997
2023-03-31T14:34:38.886Z,2.575
2023-03-31T14:37:19.536Z,3.1750000000000003
2023-03-31T14:41:19.521Z,2.575
2023-03-31T14:44:18.036Z,2.9125
2023-03-31T14:47:21.312Z,2.675
2023-03-31T14:51:23.081Z,3.9875
2023-03-31T14:54:18.353Z,3.0374999999999996
2023-03-31T14:57:19.572Z,3.675
2023-03-31T15:01:22.915Z,4.0375
2023-03-31T15:04:25.946Z,3.925
2023-03-31T15:07:17.650Z,2.9625
2023-03-31T15:11:19.462Z,3.1375
2023-03-31T15:14:17.461Z,3.425
2023-03-31T15:17:19.794Z,4.125
2023-03-31T15:21:22.596Z,5
2023-03-31T15:24:17.391Z,3.9124999999999996
2023-03-31T15:27:35.907Z,3.35
2023-03-31T15:31:16.985Z,3.3375
2023-03-31T15:34:24.884Z,3.0625
2023-03-31T15:37:22.227Z,3.425
2023-03-31T15:41:17.156Z,2.7125
2023-03-31T15:44:54.661Z,3.4875000000000003
2023-03-31T15:47:18.592Z,3.6624999999999996
2023-03-31T15:51:19.656Z,4.2
2023-03-31T15:54:50.012Z,3.375
2023-03-31T15:57:18.303Z,3.6
2023-03-31T16:01:17.123Z,3.425
2023-03-31T16:04:17.736Z,3.6750000000000003
2023-03-31T16:07:22.843Z,3.625
2023-03-31T16:11:21.386Z,3.3875
2023-03-31T16:14:20.244Z,2.975
2023-03-31T16:17:26.203Z,3.0999999999999996
2023-03-31T16:21:21.330Z,3.8125
2023-03-31T16:24:18.513Z,3.8625
2023-03-31T16:27:17.146Z,3.0250000000000004
2023-03-31T16:31:29.467Z,3.9000000000000004
2023-03-31T16:34:17.622Z,7.324999999999999
2023-03-31T16:37:17.402Z,5.1125
2023-03-31T16:41:17.788Z,3.8875
2023-03-31T16:44:17.758Z,3.2375
2023-03-31T16:47:27.480Z,4.5
2023-03-31T16:51:18.172Z,4.762499999999999
2023-03-31T16:54:17.155Z,4.125
2023-03-31T16:57:17.256Z,4
2023-03-31T17:01:16.540Z,4.6875
2023-03-31T17:04:16.836Z,5.3500000000000005
2023-03-31T17:07:16.819Z,4.2375
2023-03-31T17:11:16.595Z,8.625
2023-03-31T17:14:17.137Z,9.025
2023-03-31T17:17:17.970Z,7.3125
2023-03-31T17:21:18.733Z,8.5
2023-03-31T17:24:17.286Z,7.1375
2023-03-31T17:27:17.390Z,10.325
2023-03-31T17:31:18.561Z,11.4375
2023-03-31T17:34:17.428Z,11.525
2023-03-31T17:37:18.578Z,6.5875
2023-03-31T17:41:18.098Z,10.975
2023-03-31T17:44:17.186Z,15.325000000000001
2023-03-31T17:47:17.966Z,12.4375
2023-03-31T17:51:18.026Z,10.3125
2023-03-31T17:54:17.787Z,8.5625
2023-03-31T17:57:17.125Z,8
2023-03-31T18:01:17.351Z,7.025
2023-03-31T18:04:18.029Z,7.1
2023-03-31T18:07:19.498Z,6.0875
2023-03-31T18:11:17.529Z,7.325
2023-03-31T18:14:17.690Z,8.475
2023-03-31T18:17:17.724Z,6.425
2023-03-31T18:21:16.475Z,9.825
2023-03-31T18:24:17.346Z,10.7125
2023-03-31T18:27:17.596Z,6.6875
2023-03-31T18:31:16.647Z,11.9375
2023-03-31T18:34:16.974Z,16.875
2023-03-31T18:37:17.017Z,10.275
2023-03-31T18:41:18.349Z,6.5
2023-03-31T18:44:18.057Z,5.7625
2023-03-31T18:47:17.130Z,12.675
2023-03-31T18:51:16.295Z,6.0375000000000005
2023-03-31T18:54:17.530Z,7.4750000000000005
2023-03-31T18:57:16.303Z,22.875
2023-03-31T19:01:15.643Z,55.9
2023-03-31T19:04:16.298Z,29.725
2023-03-31T19:07:16.782Z,29.8375
2023-03-31T19:11:16.564Z,8.775
2023-03-31T19:14:17.151Z,10.5
2023-03-31T19:17:17.833Z,9.3625
2023-03-31T19:21:16.188Z,7.7125
2023-03-31T19:24:17.153Z,9.125
2023-03-31T19:27:16.865Z,9.012500000000001
2023-03-31T19:31:16.558Z,7.449999999999999
2023-03-31T19:34:17.811Z,6.5625
2023-03-31T19:37:16.843Z,8.1875
2023-03-31T19:41:18.189Z,8.375
2023-03-31T19:44:16.262Z,9.325000000000001
2023-03-31T19:47:16.534Z,9.649999999999999
2023-03-31T19:51:17.227Z,6.6875
2023-03-31T19:54:17.633Z,6.2875
2023-03-31T19:57:16.813Z,6.3
2023-03-31T20:01:19.401Z,8.512500000000001
2023-03-31T20:04:18.373Z,10.3625
2023-03-31T20:07:16.529Z,8.0125
2023-03-31T20:11:16.583Z,9.4375
2023-03-31T20:14:17.565Z,8.4625
2023-03-31T20:17:17.000Z,7.249999999999999
2023-03-31T20:21:19.185Z,6.6125
2023-03-31T20:24:18.165Z,10.1
2023-03-31T20:27:16.751Z,7.225
2023-03-31T20:31:18.380Z,6.7124999999999995
2023-03-31T20:34:17.728Z,6.3375
2023-03-31T20:37:16.449Z,6.15
2023-03-31T20:41:18.990Z,6.675000000000001
2023-03-31T20:44:17.352Z,6.074999999999999
2023-03-31T20:47:17.139Z,5.987499999999999
2023-03-31T20:51:19.728Z,7.075000000000001
2023-03-31T20:54:19.011Z,5.7875000000000005
2023-03-31T20:57:17.636Z,7.624999999999999
2023-03-31T21:01:17.265Z,13.3
2023-03-31T21:04:17.283Z,12.149999999999999
2023-03-31T21:07:16.874Z,8.075
2023-03-31T21:11:16.485Z,7.9125
2023-03-31T21:14:16.627Z,6.4125
2023-03-31T21:17:16.222Z,8.5375
2023-03-31T21:21:17.360Z,8.9
2023-03-31T21:24:16.710Z,9.787500000000001
2023-03-31T21:27:16.648Z,8.5
2023-03-31T21:31:18.065Z,8.3625
2023-03-31T21:34:16.892Z,8.6875
2023-03-31T21:37:16.886Z,7.3125
2023-03-31T21:41:17.567Z,7.362499999999999
2023-03-31T21:44:16.445Z,7.0375
2023-03-31T21:47:16.877Z,7.2
2023-03-31T21:51:16.884Z,7.175000000000001
2023-03-31T21:54:16.751Z,9.287500000000001
2023-03-31T21:57:16.552Z,6.925
2023-03-31T22:01:18.371Z,8.350000000000001
2023-03-31T22:04:17.313Z,7.5625
2023-03-31T22:07:16.795Z,6.7125
2023-03-31T22:11:16.019Z,8.274999999999999
2023-03-31T22:14:16.720Z,8.125
2023-03-31T22:17:16.674Z,7.2125
2023-03-31T22:21:18.162Z,7.15
2023-03-31T22:24:16.784Z,9.6875
2023-03-31T22:27:17.431Z,8.0125
2023-03-31T22:31:16.620Z,8.25
2023-03-31T22:34:19.531Z,8.35
2023-03-31T22:37:16.938Z,7.625
2023-03-31T22:41:16.525Z,6.6875
2023-03-31T22:44:17.106Z,6.4125
2023-03-31T22:47:16.742Z,7.5375000000000005
2023-03-31T22:51:16.395Z,6.9125
2023-03-31T22:54:16.898Z,7.6625
2023-03-31T22:57:17.196Z,7.85
2023-03-31T23:01:19.038Z,8.275
2023-03-31T23:04:16.448Z,7.875
2023-03-31T23:07:17.016Z,7.887500000000001
2023-03-31T23:11:17.803Z,7.625
2023-03-31T23:14:16.570Z,7.2125
2023-03-31T23:17:16.445Z,7.15
2023-03-31T23:21:18.746Z,7.762499999999999
2023-03-31T23:24:19.835Z,7.4125
2023-03-31T23:27:16.717Z,8.0375
2023-03-31T23:31:17.625Z,8.5125
2023-03-31T23:34:16.706Z,8.3875
2023-03-31T23:37:16.609Z,8.1625
2023-03-31T23:41:17.444Z,7.175
2023-03-31T23:44:16.804Z,8.3875
2023-03-31T23:47:16.763Z,7.2125
2023-03-31T23:51:17.246Z,8.1375
2023-03-31T23:54:17.215Z,7.2875000000000005
2023-03-31T23:57:17.224Z,7.550000000000001
